KHOT/HOT METAR and TAF weather

Enter ICAO airport designator
Station Type Date Time Source
KHOT METAR 2022/05/23 14:53 UTC NOAA

KHOT 231453Z AUTO 09005KT 10SM OVC017 17/11 A3017 RMK AO2 SLP214 T01670111 50003


Station Type Date Time Source
KHOT Decoded METAR 2022/05/23 14:53 UTC NOAA

HOT SPRINGS MEMORIAL FIELD, AR, United States (KHOT) 34-29N 093-06W 162M
May 23, 2022 - 10:53 AM EDT / 2022.05.23 1453 UTC
Wind: from the E (090 degrees) at 6 MPH (5 KT):0
Visibility: 10 mile(s):0
Sky conditions: overcast
Temperature: 62.1 F (16.7 C)
Dew Point: 52.0 F (11.1 C)
Relative Humidity: 69%
Pressure (altimeter): 30.17 in. Hg (1021 hPa)
Pressure tendency: 0.01 inches (0.3 hPa) higher than three hours ago
ob: KHOT 231453Z AUTO 09005KT 10SM OVC017 17/11 A3017 RMK AO2 SLP214 T01670111 50003
cycle: 15

Station Type Date Time Source
KHOT TAF 2022/05/23 12:22 UTC NOAA

TAF KHOT 231120Z 2312/2412 VRB06KT P6SM OVC015
FM231800 07007KT P6SM BKN040 OVC100
FM240600 09005KT P6SM VCSH BKN015

Example: see airport list